Time;durP1;ratioP1;P1;durP2;ratioP2;P2;SDS_P1;SDS_P2;PMS_P1;PMS_P2;Temp;Humidity;BMP_temperature;BMP_pressure;BME280_temperature;BME280_humidity;BME280_pressure;Samples;Min_cycle;Max_cycle;Signal;HPM_P1;HPM_P2
2022/05/31 00:04:56;;;;;;;1.00;0.60;;;;;;;;;;20808485;28;20277;-84
2022/05/31 00:14:59;;;;;;;0.40;0.40;;;16.40;97.60;;;;;;20862955;28;20242;-83
2022/05/31 00:25:01;;;;;;;1.03;0.63;;;16.60;99.90;;;;;;20813574;28;20295;-84
2022/05/31 00:35:07;;;;;;;0.67;0.50;;;;;;;;;;20807215;28;20241;-84
2022/05/31 00:45:09;;;;;;;1.33;0.70;;;;;;;;;;20807302;28;20245;-86
2022/05/31 00:55:21;;;;;;;1.07;0.70;;;;;;;;;;20807215;28;20264;-85
2022/05/31 01:05:24;;;;;;;1.47;0.60;;;;;;;;;;20806361;28;20206;-85
2022/05/31 01:15:26;;;;;;;1.03;0.60;;;;;;;;;;20826662;28;20242;-84
2022/05/31 01:25:50;;;;;;;1.53;0.50;;;;;;;;;;20822509;28;20222;-84
2022/05/31 01:35:53;;;;;;;0.87;0.50;;;;;;;;;;20789678;28;20211;-85
2022/05/31 01:45:54;;;;;;;0.63;0.50;;;;;;;;;;20803904;28;20337;-85
2022/05/31 01:55:56;;;;;;;0.77;0.60;;;;;;;;;;20852607;28;20226;-85
2022/05/31 02:05:59;;;;;;;0.87;0.50;;;;;;;;;;20851723;28;20214;-85
2022/05/31 02:16:02;;;;;;;1.33;0.70;;;;;;;;;;20867204;28;20572;-85
2022/05/31 02:26:19;;;;;;;0.77;0.47;;;;;;;;;;20819375;28;20226;-85
2022/05/31 02:36:21;;;;;;;0.50;0.40;;;;;;;;;;20850490;28;20707;-84
2022/05/31 02:46:24;;;;;;;1.23;0.60;;;14.90;99.90;;;;;;20839731;28;20230;-85
2022/05/31 02:56:26;;;;;;;0.60;0.50;;;;;;;;;;20798078;28;20281;-84
2022/05/31 03:06:48;;;;;;;1.17;0.60;;;;;;;;;;20816689;28;20241;-84
2022/05/31 03:16:54;;;;;;;1.07;0.67;;;;;;;;;;20812835;28;20304;-85
2022/05/31 03:26:57;;;;;;;0.93;0.50;;;;;;;;;;20844965;28;20253;-85
2022/05/31 03:36:59;;;;;;;1.20;0.60;;;;;;;;;;20847049;28;20237;-84
2022/05/31 03:47:02;;;;;;;0.57;0.50;;;;;;;;;;20808448;28;20264;-85
2022/05/31 03:57:22;;;;;;;0.57;0.47;;;;;;;;;;20811208;28;20218;-84
2022/05/31 04:07:51;;;;;;;1.70;0.60;;;;;;;;;;20797078;28;20692;-85
2022/05/31 04:17:52;;;;;;;0.73;0.50;;;;;;;;;;20813075;28;20230;-83
2022/05/31 04:27:54;;;;;;;0.50;0.40;;;;;;;;;;20811638;28;20206;-85
2022/05/31 04:38:16;;;;;;;2.03;1.00;;;;;;;;;;20812105;28;20238;-85
2022/05/31 04:48:32;;;;;;;0.93;0.57;;;;;;;;;;20810835;28;20272;-85
2022/05/31 04:58:34;;;;;;;4.17;0.60;;;;;;;;;;20810035;28;20288;-85
2022/05/31 05:08:37;;;;;;;0.70;0.30;;;;;;;;;;20825156;28;20233;-86
2022/05/31 05:18:41;;;;;;;0.83;0.60;;;;;;;;;;20854178;28;20222;-86
2022/05/31 05:39:15;;;;;;;1.50;0.80;;;;;;;;;;20826386;28;20235;-86
2022/05/31 05:49:29;;;;;;;1.60;0.67;;;;;;;;;;20866588;28;20563;-86
2022/05/31 05:59:34;;;;;;;0.83;0.53;;;;;;;;;;20823390;28;20272;-86
2022/05/31 06:10:03;;;;;;;0.90;0.50;;;;;;;;;;20820807;28;20265;-86
2022/05/31 06:20:07;;;;;;;1.63;0.60;;;;;;;;;;20794523;28;20226;-85
2022/05/31 06:30:11;;;;;;;1.30;0.70;;;;;;;;;;20827342;28;20260;-85
2022/05/31 06:40:13;;;;;;;1.80;0.43;;;;;;;;;;20826379;28;20309;-85
2022/05/31 06:50:41;;;;;;;2.73;0.90;;;;;;;;;;20788079;28;20226;-85
2022/05/31 07:00:44;;;;;;;1.33;0.60;;;;;;;;;;20797685;28;20264;-85
2022/05/31 07:10:45;;;;;;;1.30;0.43;;;;;;;;;;20798639;28;20249;-85
2022/05/31 07:21:06;;;;;;;2.43;1.87;;;;;;;;;;20814145;28;20226;-84
2022/05/31 07:31:09;;;;;;;0.90;0.60;;;;;;;;;;20802431;28;20244;-86
2022/05/31 07:41:23;;;;;;;1.50;0.80;;;;;;;;;;20810588;28;20214;-84
2022/05/31 07:51:26;;;;;;;1.33;0.83;;;;;;;;;;20795264;28;20222;-86
2022/05/31 08:01:47;;;;;;;1.30;0.90;;;;;;;;;;20836687;28;20222;-86
2022/05/31 08:11:58;;;;;;;0.93;0.60;;;;;;;;;;20812279;28;20656;-86
2022/05/31 08:22:00;;;;;;;1.17;0.73;;;;;;;;;;20793607;28;20261;-85
2022/05/31 08:32:03;;;;;;;1.20;0.70;;;;;;;;;;20793623;28;20214;-86
2022/05/31 08:42:13;;;;;;;0.83;0.50;;;;;;;;;;20792352;28;20219;-86
2022/05/31 08:52:22;;;;;;;1.13;0.60;;;;;;;;;;20836613;28;20882;-85
2022/05/31 09:02:24;;;;;;;1.50;0.67;;;;;;;;;;20840819;28;20219;-86
2022/05/31 09:12:35;;;;;;;1.50;0.67;;;;;;;;;;20808672;28;20218;-86
2022/05/31 09:22:39;;;;;;;0.73;0.50;;;;;;;;;;20841745;28;20248;-86
2022/05/31 09:33:07;;;;;;;0.70;0.50;;;;;;;;;;20867771;28;20215;-86
2022/05/31 09:43:15;;;;;;;0.90;0.40;;;;;;;;;;20836927;28;20274;-83
2022/05/31 10:03:46;;;;;;;1.13;0.57;;;20.90;87.40;;;;;;20791034;28;20240;-86
2022/05/31 10:14:00;;;;;;;0.93;0.60;;;;;;;;;;20801760;28;20241;-85
2022/05/31 10:24:06;;;;;;;1.10;0.40;;;;;;;;;;20782900;28;20567;-82
2022/05/31 10:34:36;;;;;;;4.13;0.60;;;21.80;91.30;;;;;;20846094;28;20272;-84
2022/05/31 10:45:02;;;;;;;1.10;0.50;;;;;;;;;;20798409;28;20777;-84
2022/05/31 10:55:04;;;;;;;0.93;0.43;;;;;;;;;;20797797;28;20592;-83
2022/05/31 11:05:11;;;;;;;0.90;0.40;;;;;;;;;;20781430;28;20773;-82
2022/05/31 11:15:44;;;;;;;0.60;0.40;;;22.40;86.40;;;;;;20796321;28;20221;-85
2022/05/31 11:26:24;;;;;;;2.87;0.43;;;22.60;86.90;;;;;;20827695;28;20229;-85
2022/05/31 11:36:26;;;;;;;0.70;0.40;;;;;;;;;;20831837;28;20213;-84
2022/05/31 11:46:29;;;;;;;1.70;0.67;;;;;;;;;;20795001;28;20209;-84
2022/05/31 11:56:46;;;;;;;2.93;0.40;;;;;;;;;;20840918;28;20239;-85
2022/05/31 12:06:53;;;;;;;0.50;0.40;;;;;;;;;;20787095;28;20213;-83
2022/05/31 12:16:55;;;;;;;0.68;0.35;;;;;;;;;;20805688;28;20258;-84
2022/05/31 12:26:57;;;;;;;0.40;0.40;;;;;;;;;;20805053;28;20224;-85
2022/05/31 12:37:08;;;;;;;0.75;0.40;;;;;;;;;;20807550;28;20317;-82
2022/05/31 12:47:14;;;;;;;7.05;0.82;;;;;;;;;;20789791;28;20314;-83
2022/05/31 12:58:26;;;;;;;1.42;0.40;;;;;;;;;;20810982;28;20576;-84
2022/05/31 13:08:09;;;;;;;1.75;0.60;;;;;;;;;;20796611;28;20214;-84
2022/05/31 13:28:34;;;;;;;1.83;0.30;;;;;;;;;;20831774;28;20221;-83
2022/05/31 13:38:38;;;;;;;0.50;0.30;;;;;;;;;;20828822;28;20641;-85
2022/05/31 13:48:42;;;;;;;1.30;0.35;;;;;;;;;;20815576;28;20216;-82
2022/05/31 13:58:44;;;;;;;0.32;0.30;;;;;;;;;;20798285;28;20286;-85
2022/05/31 14:08:47;;;;;;;0.60;0.45;;;;;;;;;;20850729;28;20739;-85
2022/05/31 14:18:54;;;;;;;0.38;0.30;;;;;;;;;;20817772;28;20686;-84
2022/05/31 14:29:14;;;;;;;0.35;0.30;;;;;;;;;;20832677;28;20224;-85
2022/05/31 14:39:18;;;;;;;0.43;0.30;;;;;;;;;;20831026;28;20568;-85
2022/05/31 14:49:22;;;;;;;1.17;0.30;;;;;;;;;;20797704;28;20219;-82
2022/05/31 14:59:27;;;;;;;1.08;0.40;;;22.10;74.70;;;;;;20797274;28;20234;-87
2022/05/31 15:09:31;;;;;;;0.25;0.20;;;;;;;;;;20849412;28;20221;-85
2022/05/31 15:19:33;;;;;;;1.73;0.70;;;;;;;;;;20840572;28;20223;-84
2022/05/31 15:29:34;;;;;;;0.30;0.30;;;;;;;;;;20811904;28;20216;-85
2022/05/31 15:39:36;;;;;;;0.55;0.30;;;;;;;;;;20730483;28;20261;-85
2022/05/31 15:49:39;;;;;;;1.13;0.50;;;;;;;;;;20914477;28;20226;-84
2022/05/31 15:59:41;;;;;;;0.80;0.40;;;;;;;;;;20875196;28;20280;-84
2022/05/31 16:09:44;;;;;;;0.70;0.40;;;;;;;;;;20909012;28;20285;-85
2022/05/31 16:19:46;;;;;;;0.68;0.32;;;;;;;;;;20813215;28;20236;-84
2022/05/31 16:29:48;;;;;;;0.32;0.30;;;;;;;;;;20808671;28;20218;-85
2022/05/31 16:50:11;;;;;;;1.85;0.32;;;;;;;;;;20848117;28;20366;-84
2022/05/31 17:00:14;;;;;;;1.02;0.40;;;23.20;78.10;;;;;;20860948;28;20223;-84
2022/05/31 17:20:40;;;;;;;0.55;0.40;;;;;;;;;;20825753;28;20241;-85
2022/05/31 17:30:42;;;;;;;0.50;0.30;;;;;;;;;;20838046;28;20227;-84
2022/05/31 17:40:44;;;;;;;0.82;0.30;;;;;;;;;;20833444;28;20231;-85
2022/05/31 17:50:47;;;;;;;0.30;0.30;;;;;;;;;;20810798;28;20225;-85
2022/05/31 18:00:49;;;;;;;0.30;0.30;;;;;;;;;;20840494;28;20207;-84
2022/05/31 18:10:51;;;;;;;1.30;0.47;;;;;;;;;;20846424;28;20552;-85
2022/05/31 18:20:53;;;;;;;2.03;0.57;;;;;;;;;;20785125;28;20237;-85
2022/05/31 18:30:57;;;;;;;0.90;0.40;;;;;;;;;;20820325;28;20220;-86
2022/05/31 18:41:00;;;;;;;0.25;0.25;;;;;;;;;;20823482;28;20220;-86
2022/05/31 18:51:02;;;;;;;0.53;0.30;;;;;;;;;;20815320;28;20698;-85
2022/05/31 19:01:04;;;;;;;0.70;0.40;;;;;;;;;;20800474;28;20285;-85
2022/05/31 19:11:06;;;;;;;0.68;0.40;;;;;;;;;;20765242;28;20217;-86
2022/05/31 19:21:10;;;;;;;0.32;0.28;;;;;;;;;;20835165;28;20226;-85
2022/05/31 19:31:14;;;;;;;0.90;0.50;;;;;;;;;;20803060;28;20225;-84
2022/05/31 19:41:17;;;;;;;1.30;0.53;;;;;;;;;;20803274;28;20778;-85
2022/05/31 19:51:18;;;;;;;0.83;0.50;;;;;;;;;;20789869;28;20310;-83
2022/05/31 20:01:21;;;;;;;0.37;0.30;;;;;;;;;;20818418;28;20274;-85
2022/05/31 20:11:23;;;;;;;1.97;0.70;;;;;;;;;;20811666;28;20231;-84
2022/05/31 20:21:26;;;;;;;2.93;0.60;;;;;;;;;;20803449;28;20222;-84
2022/05/31 20:31:29;;;;;;;0.53;0.50;;;;;;;;;;20804158;28;20587;-87
2022/05/31 20:41:33;;;;;;;1.17;0.77;;;;;;;;;;20807161;28;20303;-86
2022/05/31 20:51:36;;;;;;;3.57;0.80;;;;;;;;;;20824577;28;20271;-87
2022/05/31 21:01:38;;;;;;;0.73;0.50;;;;;;;;;;20807636;28;20472;-87
2022/05/31 21:11:43;;;;;;;1.73;0.80;;;;;;;;;;20826544;28;20272;-88
2022/05/31 21:21:49;;;;;;;0.73;0.50;;;;;;;;;;20893148;28;20228;-89
2022/05/31 21:31:53;;;;;;;0.90;0.47;;;;;;;;;;20833892;28;20660;-87
2022/05/31 21:42:01;;;;;;;0.20;0.20;;;;;;;;;;20907828;28;20217;-88
2022/05/31 21:52:07;;;;;;;0.87;0.40;;;;;;;;;;20918665;28;20284;-88
2022/05/31 22:02:09;;;;;;;0.70;0.40;;;;;;;;;;20906500;28;20239;-87
2022/05/31 22:12:11;;;;;;;0.93;0.37;;;;;;;;;;20932363;28;20225;-87
2022/05/31 22:22:15;;;;;;;1.13;0.50;;;;;;;;;;20888347;28;20228;-88
2022/05/31 22:32:17;;;;;;;0.93;0.40;;;;;;;;;;20919386;28;20239;-87
2022/05/31 22:42:24;;;;;;;0.90;0.40;;;;;;;;;;20918005;28;20210;-88
2022/05/31 22:52:31;;;;;;;0.40;0.37;;;;;;;;;;20901015;28;20270;-87
2022/05/31 23:02:33;;;;;;;0.60;0.40;;;;;;;;;;20861709;28;20204;-87
2022/05/31 23:12:35;;;;;;;0.70;0.40;;;;;;;;;;20800250;28;20288;-87
2022/05/31 23:33:01;;;;;;;0.53;0.50;;;;;;;;;;20832151;28;20237;-87
2022/05/31 23:43:03;;;;;;;2.13;0.50;;;;;;;;;;20799452;28;20205;-89
2022/05/31 23:53:06;;;;;;;0.40;0.37;;;;;;;;;;20832805;28;20285;-88
